sensor_id;sensor_type;location;lat;lon;timestamp;pressure;altitude;pressure_sealevel;temperature;humidity
75942;BME280;64622;46.220;19.878;2023-01-01T00:00:27;101785.22;;;6.91;98.15
75942;BME280;64622;46.220;19.878;2023-01-01T00:02:53;101797.28;;;6.82;98.46
75942;BME280;64622;46.220;19.878;2023-01-01T00:05:20;101790.16;;;6.82;98.34
75942;BME280;64622;46.220;19.878;2023-01-01T00:07:46;101785.50;;;6.86;98.05
75942;BME280;64622;46.220;19.878;2023-01-01T00:10:13;101780.75;;;6.77;98.08
75942;BME280;64622;46.220;19.878;2023-01-01T00:12:56;101790.53;;;6.91;98.42
75942;BME280;64622;46.220;19.878;2023-01-01T00:15:23;101791.47;;;6.89;98.28
75942;BME280;64622;46.220;19.878;2023-01-01T00:17:50;101792.16;;;6.93;97.98
75942;BME280;64622;46.220;19.878;2023-01-01T00:20:16;101784.16;;;6.93;97.96
75942;BME280;64622;46.220;19.878;2023-01-01T00:22:43;101781.84;;;7.01;97.60
75942;BME280;64622;46.220;19.878;2023-01-01T00:25:11;101779.97;;;6.89;97.83
75942;BME280;64622;46.220;19.878;2023-01-01T00:27:41;101773.00;;;6.74;98.30
75942;BME280;64622;46.220;19.878;2023-01-01T00:30:10;101791.47;;;6.63;98.87
75942;BME280;64622;46.220;19.878;2023-01-01T00:32:36;101794.31;;;6.46;99.47
75942;BME280;64622;46.220;19.878;2023-01-01T00:35:03;101793.16;;;6.36;99.92
75942;BME280;64622;46.220;19.878;2023-01-01T00:37:30;101800.31;;;6.36;100.00
75942;BME280;64622;46.220;19.878;2023-01-01T00:39:57;101790.91;;;6.30;100.00
75942;BME280;64622;46.220;19.878;2023-01-01T00:42:24;101792.81;;;6.28;100.00
75942;BME280;64622;46.220;19.878;2023-01-01T00:44:51;101791.28;;;6.24;100.00
75942;BME280;64622;46.220;19.878;2023-01-01T00:47:17;101796.88;;;6.19;100.00
75942;BME280;64622;46.220;19.878;2023-01-01T00:49:44;101782.34;;;6.11;100.00
75942;BME280;64622;46.220;19.878;2023-01-01T00:52:10;101794.50;;;6.15;100.00
75942;BME280;64622;46.220;19.878;2023-01-01T00:54:37;101802.09;;;6.07;100.00
75942;BME280;64622;46.220;19.878;2023-01-01T00:57:04;101804.94;;;6.04;100.00
75942;BME280;64622;46.220;19.878;2023-01-01T00:59:31;101815.00;;;5.99;100.00
75942;BME280;64622;46.220;19.878;2023-01-01T01:01:57;101821.75;;;5.91;100.00
75942;BME280;64622;46.220;19.878;2023-01-01T01:04:24;101807.97;;;5.84;100.00
75942;BME280;64622;46.220;19.878;2023-01-01T01:06:51;101805.06;;;5.73;100.00
75942;BME280;64622;46.220;19.878;2023-01-01T01:09:17;101814.44;;;5.78;100.00
75942;BME280;64622;46.220;19.878;2023-01-01T01:11:44;101820.37;;;5.83;100.00
75942;BME280;64622;46.220;19.878;2023-01-01T01:14:11;101822.63;;;5.75;100.00
75942;BME280;64622;46.220;19.878;2023-01-01T01:16:37;101817.41;;;5.74;100.00
75942;BME280;64622;46.220;19.878;2023-01-01T01:19:04;101816.16;;;5.79;100.00
75942;BME280;64622;46.220;19.878;2023-01-01T01:21:33;101811.41;;;5.70;100.00
75942;BME280;64622;46.220;19.878;2023-01-01T01:24:01;101803.31;;;5.72;100.00
75942;BME280;64622;46.220;19.878;2023-01-01T01:26:30;101811.59;;;5.67;100.00
75942;BME280;64622;46.220;19.878;2023-01-01T01:28:58;101814.31;;;5.66;100.00
75942;BME280;64622;46.220;19.878;2023-01-01T01:31:28;101817.34;;;5.60;100.00
75942;BME280;64622;46.220;19.878;2023-01-01T01:33:55;101798.63;;;5.47;100.00
75942;BME280;64622;46.220;19.878;2023-01-01T01:36:24;101807.19;;;5.52;100.00
75942;BME280;64622;46.220;19.878;2023-01-01T01:38:51;101794.62;;;5.40;100.00
75942;BME280;64622;46.220;19.878;2023-01-01T01:41:20;101801.81;;;5.38;100.00
75942;BME280;64622;46.220;19.878;2023-01-01T01:43:51;101800.78;;;5.41;100.00
75942;BME280;64622;46.220;19.878;2023-01-01T01:49:04;101786.91;;;5.36;100.00
75942;BME280;64622;46.220;19.878;2023-01-01T01:51:37;101772.22;;;5.30;100.00
75942;BME280;64622;46.220;19.878;2023-01-01T01:54:09;101776.84;;;5.27;100.00
75942;BME280;64622;46.220;19.878;2023-01-01T01:56:46;101789.00;;;5.31;100.00
75942;BME280;64622;46.220;19.878;2023-01-01T01:59:16;101788.22;;;5.29;100.00
75942;BME280;64622;46.220;19.878;2023-01-01T02:01:45;101797.16;;;5.28;100.00
75942;BME280;64622;46.220;19.878;2023-01-01T02:04:12;101782.34;;;5.24;100.00
75942;BME280;64622;46.220;19.878;2023-01-01T02:06:39;101779.91;;;5.35;100.00
75942;BME280;64622;46.220;19.878;2023-01-01T02:09:07;101778.12;;;5.35;100.00
75942;BME280;64622;46.220;19.878;2023-01-01T02:11:34;101778.12;;;5.35;100.00
75942;BME280;64622;46.220;19.878;2023-01-01T02:14:01;101769.22;;;5.21;100.00
75942;BME280;64622;46.220;19.878;2023-01-01T02:19:43;101784.53;;;5.31;100.00
75942;BME280;64622;46.220;19.878;2023-01-01T02:30:17;101788.75;;;5.20;100.00
75942;BME280;64622;46.220;19.878;2023-01-01T02:32:48;101786.37;;;5.15;100.00
75942;BME280;64622;46.220;19.878;2023-01-01T02:35:33;101792.81;;;5.11;100.00
75942;BME280;64622;46.220;19.878;2023-01-01T02:38:08;101799.97;;;5.25;100.00
75942;BME280;64622;46.220;19.878;2023-01-01T02:41:00;101789.13;;;5.14;100.00
75942;BME280;64622;46.220;19.878;2023-01-01T02:43:28;101799.09;;;5.24;100.00
75942;BME280;64622;46.220;19.878;2023-01-01T02:45:55;101797.41;;;5.23;100.00
75942;BME280;64622;46.220;19.878;2023-01-01T02:48:45;101798.69;;;5.16;100.00
75942;BME280;64622;46.220;19.878;2023-01-01T02:54:10;101813.97;;;5.13;100.00
75942;BME280;64622;46.220;19.878;2023-01-01T02:56:48;101810.34;;;5.14;100.00
75942;BME280;64622;46.220;19.878;2023-01-01T03:07:41;101803.00;;;5.03;100.00
75942;BME280;64622;46.220;19.878;2023-01-01T03:13:10;101806.28;;;4.93;100.00
75942;BME280;64622;46.220;19.878;2023-01-01T03:18:38;101818.44;;;4.97;100.00
75942;BME280;64622;46.220;19.878;2023-01-01T03:21:08;101816.25;;;5.03;100.00
75942;BME280;64622;46.220;19.878;2023-01-01T03:23:39;101817.56;;;4.96;100.00
75942;BME280;64622;46.220;19.878;2023-01-01T03:26:09;101812.53;;;4.92;100.00
75942;BME280;64622;46.220;19.878;2023-01-01T03:28:43;101805.59;;;4.74;100.00
75942;BME280;64622;46.220;19.878;2023-01-01T03:31:15;101812.44;;;4.78;100.00
75942;BME280;64622;46.220;19.878;2023-01-01T03:33:48;101814.50;;;4.73;100.00
75942;BME280;64622;46.220;19.878;2023-01-01T03:36:24;101819.09;;;4.85;100.00
75942;BME280;64622;46.220;19.878;2023-01-01T03:38:59;101807.22;;;4.76;100.00
75942;BME280;64622;46.220;19.878;2023-01-01T03:41:39;101822.69;;;4.84;100.00
75942;BME280;64622;46.220;19.878;2023-01-01T03:47:06;101807.53;;;4.86;100.00
75942;BME280;64622;46.220;19.878;2023-01-01T03:49:33;101827.91;;;5.01;100.00
75942;BME280;64622;46.220;19.878;2023-01-01T04:00:20;101830.91;;;5.10;100.00
75942;BME280;64622;46.220;19.878;2023-01-01T04:05:24;101818.59;;;4.94;100.00
75942;BME280;64622;46.220;19.878;2023-01-01T04:07:52;101824.16;;;4.89;100.00
75942;BME280;64622;46.220;19.878;2023-01-01T04:10:21;101825.78;;;4.92;100.00
75942;BME280;64622;46.220;19.878;2023-01-01T04:12:53;101816.22;;;4.89;100.00
75942;BME280;64622;46.220;19.878;2023-01-01T04:15:25;101825.88;;;4.90;100.00
75942;BME280;64622;46.220;19.878;2023-01-01T04:17:53;101815.59;;;4.84;100.00
75942;BME280;64622;46.220;19.878;2023-01-01T04:20:21;101806.44;;;4.74;100.00
75942;BME280;64622;46.220;19.878;2023-01-01T04:22:49;101824.22;;;4.72;100.00
75942;BME280;64622;46.220;19.878;2023-01-01T04:25:16;101810.97;;;4.72;100.00
75942;BME280;64622;46.220;19.878;2023-01-01T04:27:43;101809.78;;;4.78;100.00
75942;BME280;64622;46.220;19.878;2023-01-01T04:30:12;101814.59;;;4.87;100.00
75942;BME280;64622;46.220;19.878;2023-01-01T04:32:40;101822.03;;;4.80;100.00
75942;BME280;64622;46.220;19.878;2023-01-01T04:35:08;101812.44;;;4.78;100.00
75942;BME280;64622;46.220;19.878;2023-01-01T04:37:38;101824.22;;;4.72;100.00
75942;BME280;64622;46.220;19.878;2023-01-01T04:40:06;101833.81;;;4.75;100.00
75942;BME280;64622;46.220;19.878;2023-01-01T04:42:34;101831.94;;;4.61;100.00
75942;BME280;64622;46.220;19.878;2023-01-01T04:45:01;101833.87;;;4.58;100.00
75942;BME280;64622;46.220;19.878;2023-01-01T04:47:27;101832.88;;;4.60;100.00
75942;BME280;64622;46.220;19.878;2023-01-01T04:49:54;101845.44;;;4.57;100.00
75942;BME280;64622;46.220;19.878;2023-01-01T04:52:21;101848.69;;;4.62;100.00
75942;BME280;64622;46.220;19.878;2023-01-01T04:54:48;101838.59;;;4.68;100.00
75942;BME280;64622;46.220;19.878;2023-01-01T04:57:15;101841.41;;;4.50;100.00
75942;BME280;64622;46.220;19.878;2023-01-01T04:59:42;101854.16;;;4.59;100.00
75942;BME280;64622;46.220;19.878;2023-01-01T05:02:09;101850.97;;;4.52;100.00
75942;BME280;64622;46.220;19.878;2023-01-01T05:04:35;101848.50;;;4.49;100.00
75942;BME280;64622;46.220;19.878;2023-01-01T05:07:02;101850.84;;;4.38;100.00
75942;BME280;64622;46.220;19.878;2023-01-01T05:09:28;101840.78;;;4.45;100.00
75942;BME280;64622;46.220;19.878;2023-01-01T05:11:55;101857.78;;;4.41;100.00
75942;BME280;64622;46.220;19.878;2023-01-01T05:14:22;101852.28;;;4.28;100.00
75942;BME280;64622;46.220;19.878;2023-01-01T05:16:48;101855.50;;;4.18;100.00
75942;BME280;64622;46.220;19.878;2023-01-01T05:19:15;101861.84;;;4.15;100.00
75942;BME280;64622;46.220;19.878;2023-01-01T05:21:42;101858.38;;;4.13;100.00
75942;BME280;64622;46.220;19.878;2023-01-01T05:24:11;101855.66;;;4.47;100.00
75942;BME280;64622;46.220;19.878;2023-01-01T05:26:41;101860.63;;;4.53;100.00
75942;BME280;64622;46.220;19.878;2023-01-01T05:29:08;101856.47;;;4.49;100.00
75942;BME280;64622;46.220;19.878;2023-01-01T05:31:35;101859.72;;;4.54;100.00
75942;BME280;64622;46.220;19.878;2023-01-01T05:34:03;101861.25;;;4.58;100.00
75942;BME280;64622;46.220;19.878;2023-01-01T05:36:33;101850.00;;;4.70;100.00
75942;BME280;64622;46.220;19.878;2023-01-01T05:39:05;101856.50;;;4.80;100.00
75942;BME280;64622;46.220;19.878;2023-01-01T05:41:32;101846.66;;;4.82;100.00
75942;BME280;64622;46.220;19.878;2023-01-01T05:44:03;101851.63;;;4.73;100.00
75942;BME280;64622;46.220;19.878;2023-01-01T05:46:30;101847.25;;;4.87;100.00
75942;BME280;64622;46.220;19.878;2023-01-01T05:48:57;101846.31;;;4.88;100.00
75942;BME280;64622;46.220;19.878;2023-01-01T05:51:26;101860.44;;;4.89;100.00
75942;BME280;64622;46.220;19.878;2023-01-01T05:53:54;101856.16;;;4.86;100.00
75942;BME280;64622;46.220;19.878;2023-01-01T05:56:22;101860.09;;;4.79;100.00
75942;BME280;64622;46.220;19.878;2023-01-01T05:58:49;101856.53;;;4.63;100.00
75942;BME280;64622;46.220;19.878;2023-01-01T06:01:18;101856.13;;;4.71;100.00
75942;BME280;64622;46.220;19.878;2023-01-01T06:03:45;101870.94;;;4.75;100.00
75942;BME280;64622;46.220;19.878;2023-01-01T06:06:17;101864.00;;;4.72;100.00
75942;BME280;64622;46.220;19.878;2023-01-01T06:08:59;101870.09;;;4.74;100.00
75942;BME280;64622;46.220;19.878;2023-01-01T06:11:26;101877.59;;;4.66;100.00
75942;BME280;64622;46.220;19.878;2023-01-01T06:13:56;101875.28;;;4.60;100.00
75942;BME280;64622;46.220;19.878;2023-01-01T06:16:24;101880.94;;;4.54;100.00
75942;BME280;64622;46.220;19.878;2023-01-01T06:18:50;101870.87;;;4.44;100.00
75942;BME280;64622;46.220;19.878;2023-01-01T06:21:20;101888.56;;;4.43;100.00
75942;BME280;64622;46.220;19.878;2023-01-01T06:23:48;101892.25;;;4.41;100.00
75942;BME280;64622;46.220;19.878;2023-01-01T06:26:17;101895.91;;;4.38;100.00
75942;BME280;64622;46.220;19.878;2023-01-01T06:28:45;101897.72;;;4.38;100.00
75942;BME280;64622;46.220;19.878;2023-01-01T06:31:14;101890.00;;;4.33;100.00
75942;BME280;64622;46.220;19.878;2023-01-01T06:33:41;101886.88;;;4.42;100.00
75942;BME280;64622;46.220;19.878;2023-01-01T06:36:11;101891.56;;;4.37;100.00
75942;BME280;64622;46.220;19.878;2023-01-01T06:38:41;101887.87;;;4.40;100.00
75942;BME280;64622;46.220;19.878;2023-01-01T06:41:17;101889.28;;;4.47;100.00
75942;BME280;64622;46.220;19.878;2023-01-01T06:43:44;101884.75;;;4.49;100.00
75942;BME280;64622;46.220;19.878;2023-01-01T06:46:18;101882.03;;;4.50;100.00
75942;BME280;64622;46.220;19.878;2023-01-01T06:48:50;101884.34;;;4.56;100.00
75942;BME280;64622;46.220;19.878;2023-01-01T06:51:23;101877.87;;;4.62;100.00
75942;BME280;64622;46.220;19.878;2023-01-01T06:53:51;101884.47;;;4.70;100.00
75942;BME280;64622;46.220;19.878;2023-01-01T06:56:19;101887.78;;;4.74;100.00
75942;BME280;64622;46.220;19.878;2023-01-01T06:58:46;101885.75;;;4.79;100.00
75942;BME280;64622;46.220;19.878;2023-01-01T07:01:17;101903.31;;;4.97;100.00
75942;BME280;64622;46.220;19.878;2023-01-01T07:03:52;101898.09;;;5.11;100.00
75942;BME280;64622;46.220;19.878;2023-01-01T07:06:19;101891.91;;;5.26;100.00
75942;BME280;64622;46.220;19.878;2023-01-01T07:08:47;101891.41;;;5.35;100.00
75942;BME280;64622;46.220;19.878;2023-01-01T07:11:14;101894.13;;;5.49;100.00
75942;BME280;64622;46.220;19.878;2023-01-01T07:13:41;101890.44;;;5.51;100.00
75942;BME280;64622;46.220;19.878;2023-01-01T07:16:08;101892.00;;;5.55;100.00
75942;BME280;64622;46.220;19.878;2023-01-01T07:18:34;101898.94;;;5.58;100.00
75942;BME280;64622;46.220;19.878;2023-01-01T07:21:02;101894.28;;;5.61;100.00
75942;BME280;64622;46.220;19.878;2023-01-01T07:23:33;101886.91;;;5.66;100.00
75942;BME280;64622;46.220;19.878;2023-01-01T07:26:00;101898.50;;;5.79;100.00
75942;BME280;64622;46.220;19.878;2023-01-01T07:28:27;101896.47;;;5.84;100.00
75942;BME280;64622;46.220;19.878;2023-01-01T07:30:53;101901.13;;;5.81;100.00
75942;BME280;64622;46.220;19.878;2023-01-01T07:33:22;101892.09;;;5.83;100.00
75942;BME280;64622;46.220;19.878;2023-01-01T07:35:49;101890.63;;;5.93;100.00
75942;BME280;64622;46.220;19.878;2023-01-01T07:38:16;101889.41;;;5.99;100.00
75942;BME280;64622;46.220;19.878;2023-01-01T07:40:43;101895.09;;;5.93;100.00
75942;BME280;64622;46.220;19.878;2023-01-01T07:43:10;101903.94;;;6.07;99.74
75942;BME280;64622;46.220;19.878;2023-01-01T07:45:38;101905.97;;;6.18;99.14
75942;BME280;64622;46.220;19.878;2023-01-01T07:48:06;101907.81;;;6.32;98.36
75942;BME280;64622;46.220;19.878;2023-01-01T07:50:35;101911.31;;;6.46;97.60
75942;BME280;64622;46.220;19.878;2023-01-01T07:53:04;101907.34;;;6.67;97.20
75942;BME280;64622;46.220;19.878;2023-01-01T07:55:31;101905.06;;;6.75;97.01
75942;BME280;64622;46.220;19.878;2023-01-01T07:57:59;101899.53;;;6.92;96.32
75942;BME280;64622;46.220;19.878;2023-01-01T08:00:27;101888.69;;;7.09;95.33
75942;BME280;64622;46.220;19.878;2023-01-01T08:02:54;101903.41;;;7.14;95.38
75942;BME280;64622;46.220;19.878;2023-01-01T08:05:21;101902.72;;;7.25;95.07
75942;BME280;64622;46.220;19.878;2023-01-01T08:07:49;101901.34;;;7.32;94.82
75942;BME280;64622;46.220;19.878;2023-01-01T08:10:17;101905.59;;;7.48;93.92
75942;BME280;64622;46.220;19.878;2023-01-01T08:12:46;101908.22;;;7.62;93.42
75942;BME280;64622;46.220;19.878;2023-01-01T08:15:14;101903.03;;;7.73;93.37
75942;BME280;64622;46.220;19.878;2023-01-01T08:17:41;101900.03;;;8.17;91.74
75942;BME280;64622;46.220;19.878;2023-01-01T08:20:08;101900.41;;;8.25;91.31
75942;BME280;64622;46.220;19.878;2023-01-01T08:22:38;101903.72;;;8.29;91.52
75942;BME280;64622;46.220;19.878;2023-01-01T08:25:06;101912.78;;;8.51;90.94
75942;BME280;64622;46.220;19.878;2023-01-01T08:27:32;101905.66;;;8.77;89.87
75942;BME280;64622;46.220;19.878;2023-01-01T08:29:59;101913.38;;;9.05;88.74
75942;BME280;64622;46.220;19.878;2023-01-01T08:32:26;101914.25;;;9.05;89.09
75942;BME280;64622;46.220;19.878;2023-01-01T08:34:52;101903.47;;;9.07;89.31
75942;BME280;64622;46.220;19.878;2023-01-01T08:37:20;101906.28;;;9.29;88.08
75942;BME280;64622;46.220;19.878;2023-01-01T08:39:49;101911.00;;;9.25;88.95
75942;BME280;64622;46.220;19.878;2023-01-01T08:42:16;101922.56;;;9.49;87.71
75942;BME280;64622;46.220;19.878;2023-01-01T08:44:43;101915.25;;;9.98;85.84
75942;BME280;64622;46.220;19.878;2023-01-01T08:47:24;101913.03;;;10.16;83.96
75942;BME280;64622;46.220;19.878;2023-01-01T08:49:51;101911.56;;;10.68;83.10
75942;BME280;64622;46.220;19.878;2023-01-01T08:52:19;101918.78;;;10.79;83.20
75942;BME280;64622;46.220;19.878;2023-01-01T08:54:46;101914.97;;;11.03;80.55
75942;BME280;64622;46.220;19.878;2023-01-01T08:57:12;101926.91;;;11.21;80.79
75942;BME280;64622;46.220;19.878;2023-01-01T08:59:39;101910.97;;;11.09;80.55
75942;BME280;64622;46.220;19.878;2023-01-01T09:02:06;101918.84;;;11.43;80.17
75942;BME280;64622;46.220;19.878;2023-01-01T09:04:33;101919.78;;;11.53;79.18
75942;BME280;64622;46.220;19.878;2023-01-01T09:06:59;101914.53;;;11.74;77.48
75942;BME280;64622;46.220;19.878;2023-01-01T09:09:27;101915.88;;;11.68;78.19
75942;BME280;64622;46.220;19.878;2023-01-01T09:11:55;101906.44;;;11.85;77.42
75942;BME280;64622;46.220;19.878;2023-01-01T09:14:24;101903.16;;;11.81;76.59
75942;BME280;64622;46.220;19.878;2023-01-01T09:16:51;101904.19;;;12.21;75.81
75942;BME280;64622;46.220;19.878;2023-01-01T09:19:17;101888.22;;;12.20;75.18
75942;BME280;64622;46.220;19.878;2023-01-01T09:21:45;101892.53;;;12.32;73.97
75942;BME280;64622;46.220;19.878;2023-01-01T09:24:11;101893.16;;;12.35;74.71
75942;BME280;64622;46.220;19.878;2023-01-01T09:26:38;101906.94;;;12.51;74.74
75942;BME280;64622;46.220;19.878;2023-01-01T09:29:05;101892.53;;;12.52;73.57
75942;BME280;64622;46.220;19.878;2023-01-01T09:31:31;101894.28;;;12.93;72.30
75942;BME280;64622;46.220;19.878;2023-01-01T09:33:58;101888.78;;;12.94;72.36
75942;BME280;64622;46.220;19.878;2023-01-01T09:36:27;101892.13;;;12.87;71.41
75942;BME280;64622;46.220;19.878;2023-01-01T09:38:55;101885.31;;;13.03;70.03
75942;BME280;64622;46.220;19.878;2023-01-01T09:41:45;101876.06;;;13.36;71.07
75942;BME280;64622;46.220;19.878;2023-01-01T09:47:32;101868.47;;;13.79;70.88
75942;BME280;64622;46.220;19.878;2023-01-01T09:50:23;101862.38;;;13.67;70.63
75942;BME280;64622;46.220;19.878;2023-01-01T09:52:59;101865.47;;;14.10;69.54
75942;BME280;64622;46.220;19.878;2023-01-01T09:58:12;101859.97;;;13.64;70.17
75942;BME280;64622;46.220;19.878;2023-01-01T10:00:42;101847.78;;;13.79;70.08
75942;BME280;64622;46.220;19.878;2023-01-01T10:06:14;101857.00;;;13.67;69.79
75942;BME280;64622;46.220;19.878;2023-01-01T10:08:53;101851.34;;;13.99;69.37
75942;BME280;64622;46.220;19.878;2023-01-01T10:11:46;101838.13;;;14.34;68.12
75942;BME280;64622;46.220;19.878;2023-01-01T10:16:53;101850.59;;;14.81;66.41
75942;BME280;64622;46.220;19.878;2023-01-01T10:19:32;101850.59;;;14.81;66.59
75942;BME280;64622;46.220;19.878;2023-01-01T10:22:09;101852.00;;;14.85;65.86
75942;BME280;64622;46.220;19.878;2023-01-01T10:29:55;101841.06;;;14.50;65.92
75942;BME280;64622;46.220;19.878;2023-01-01T10:32:32;101843.34;;;14.81;66.59
75942;BME280;64622;46.220;19.878;2023-01-01T10:35:02;101844.66;;;14.77;65.53
75942;BME280;64622;46.220;19.878;2023-01-01T10:37:35;101836.63;;;14.58;66.43
75942;BME280;64622;46.220;19.878;2023-01-01T10:40:13;101842.69;;;14.70;65.27
75942;BME280;64622;46.220;19.878;2023-01-01T10:42:40;101826.84;;;14.57;66.64
75942;BME280;64622;46.220;19.878;2023-01-01T10:45:15;101827.31;;;14.43;66.83
75942;BME280;64622;46.220;19.878;2023-01-01T10:50:52;101817.16;;;14.74;66.19
75942;BME280;64622;46.220;19.878;2023-01-01T10:58:50;101799.50;;;15.68;64.56
75942;BME280;64622;46.220;19.878;2023-01-01T11:01:22;101806.31;;;15.72;62.52
75942;BME280;64622;46.220;19.878;2023-01-01T11:03:59;101816.47;;;15.43;63.78
75942;BME280;64622;46.220;19.878;2023-01-01T11:06:35;101803.19;;;15.32;63.54
75942;BME280;64622;46.220;19.878;2023-01-01T11:09:04;101809.91;;;15.46;63.27
75942;BME280;64622;46.220;19.878;2023-01-01T11:11:42;101814.59;;;15.79;63.33
75942;BME280;64622;46.220;19.878;2023-01-01T11:14:56;101812.75;;;15.44;63.23
75942;BME280;64622;46.220;19.878;2023-01-01T11:17:30;101811.19;;;15.94;62.32
75942;BME280;64622;46.220;19.878;2023-01-01T11:20:02;101801.19;;;15.87;63.21
75942;BME280;64622;46.220;19.878;2023-01-01T11:22:43;101798.88;;;15.74;63.24
75942;BME280;64622;46.220;19.878;2023-01-01T11:27:47;101796.06;;;16.27;60.98
75942;BME280;64622;46.220;19.878;2023-01-01T11:30:25;101788.34;;;16.32;61.86
75942;BME280;64622;46.220;19.878;2023-01-01T11:32:56;101780.22;;;16.06;62.80
75942;BME280;64622;46.220;19.878;2023-01-01T11:35:26;101772.25;;;15.79;61.82
75942;BME280;64622;46.220;19.878;2023-01-01T11:37:55;101774.97;;;16.30;60.82
75942;BME280;64622;46.220;19.878;2023-01-01T11:40:37;101774.72;;;16.16;61.03
75942;BME280;64622;46.220;19.878;2023-01-01T11:43:05;101769.56;;;16.30;61.08
75942;BME280;64622;46.220;19.878;2023-01-01T11:45:34;101770.38;;;16.23;61.75
75942;BME280;64622;46.220;19.878;2023-01-01T11:48:11;101770.81;;;16.10;62.50
75942;BME280;64622;46.220;19.878;2023-01-01T11:50:47;101757.34;;;15.93;63.23
75942;BME280;64622;46.220;19.878;2023-01-01T11:53:27;101756.94;;;15.80;63.83
75942;BME280;64622;46.220;19.878;2023-01-01T12:01:18;101769.88;;;15.59;64.18
75942;BME280;64622;46.220;19.878;2023-01-01T12:03:57;101761.09;;;15.74;63.89
75942;BME280;64622;46.220;19.878;2023-01-01T12:06:56;101769.00;;;15.93;63.52
75942;BME280;64622;46.220;19.878;2023-01-01T12:09:39;101760.41;;;15.98;62.93
75942;BME280;64622;46.220;19.878;2023-01-01T12:12:22;101752.41;;;16.14;63.27
75942;BME280;64622;46.220;19.878;2023-01-01T12:17:38;101765.87;;;16.06;64.10
75942;BME280;64622;46.220;19.878;2023-01-01T12:22:59;101765.06;;;15.88;64.66
75942;BME280;64622;46.220;19.878;2023-01-01T12:25:34;101752.31;;;15.55;65.55
75942;BME280;64622;46.220;19.878;2023-01-01T12:31:26;101751.81;;;15.77;65.49
75942;BME280;64622;46.220;19.878;2023-01-01T12:36:44;101761.47;;;15.27;67.17
75942;BME280;64622;46.220;19.878;2023-01-01T12:48:29;101746.84;;;15.47;67.02
75942;BME280;64622;46.220;19.878;2023-01-01T12:59:52;101733.41;;;15.20;71.12
75942;BME280;64622;46.220;19.878;2023-01-01T13:02:26;101726.75;;;14.97;72.13
75942;BME280;64622;46.220;19.878;2023-01-01T13:05:09;101733.06;;;15.05;71.83
75942;BME280;64622;46.220;19.878;2023-01-01T13:07:42;101727.44;;;14.81;73.10
75942;BME280;64622;46.220;19.878;2023-01-01T13:12:46;101721.37;;;14.52;74.44
75942;BME280;64622;46.220;19.878;2023-01-01T13:15:50;101716.19;;;14.41;75.07
75942;BME280;64622;46.220;19.878;2023-01-01T13:18:20;101713.31;;;14.43;75.47
75942;BME280;64622;46.220;19.878;2023-01-01T13:43:03;101748.59;;;14.49;77.27
75942;BME280;64622;46.220;19.878;2023-01-01T13:45:37;101742.44;;;14.30;78.53
75942;BME280;64622;46.220;19.878;2023-01-01T13:56:53;101737.09;;;14.11;79.73
75942;BME280;64622;46.220;19.878;2023-01-01T14:02:07;101735.94;;;14.23;79.48
75942;BME280;64622;46.220;19.878;2023-01-01T14:05:04;101739.06;;;14.18;79.62
75942;BME280;64622;46.220;19.878;2023-01-01T14:07:54;101734.13;;;14.14;79.78
75942;BME280;64622;46.220;19.878;2023-01-01T14:10:25;101738.69;;;14.04;80.33
75942;BME280;64622;46.220;19.878;2023-01-01T14:12:56;101740.78;;;14.10;80.12
75942;BME280;64622;46.220;19.878;2023-01-01T14:15:30;101732.00;;;14.08;80.22
75942;BME280;64622;46.220;19.878;2023-01-01T14:17:59;101736.41;;;14.09;80.17
75942;BME280;64622;46.220;19.878;2023-01-01T14:20:35;101726.22;;;13.93;80.67
75942;BME280;64622;46.220;19.878;2023-01-01T14:23:09;101729.78;;;13.84;81.19
75942;BME280;64622;46.220;19.878;2023-01-01T14:25:40;101728.22;;;13.82;81.55
75942;BME280;64622;46.220;19.878;2023-01-01T14:28:30;101732.19;;;13.78;81.86
75942;BME280;64622;46.220;19.878;2023-01-01T14:31:00;101728.53;;;13.69;82.31
75942;BME280;64622;46.220;19.878;2023-01-01T14:33:31;101737.91;;;13.56;82.91
75942;BME280;64622;46.220;19.878;2023-01-01T14:36:05;101736.38;;;13.44;83.50
75942;BME280;64622;46.220;19.878;2023-01-01T14:38:33;101737.63;;;13.30;84.35
75942;BME280;64622;46.220;19.878;2023-01-01T14:43:30;101740.72;;;13.07;85.44
75942;BME280;64622;46.220;19.878;2023-01-01T14:45:57;101737.59;;;13.02;85.42
75942;BME280;64622;46.220;19.878;2023-01-01T14:48:25;101750.47;;;12.98;85.92
75942;BME280;64622;46.220;19.878;2023-01-01T14:50:53;101741.81;;;12.95;86.17
75942;BME280;64622;46.220;19.878;2023-01-01T14:53:29;101749.81;;;12.66;86.84
75942;BME280;64622;46.220;19.878;2023-01-01T14:55:56;101735.19;;;12.50;86.89
75942;BME280;64622;46.220;19.878;2023-01-01T14:58:25;101740.53;;;12.40;87.62
75942;BME280;64622;46.220;19.878;2023-01-01T15:00:53;101735.13;;;12.31;88.53
75942;BME280;64622;46.220;19.878;2023-01-01T15:03:38;101745.06;;;12.10;90.21
75942;BME280;64622;46.220;19.878;2023-01-01T15:06:15;101737.19;;;11.88;91.38
75942;BME280;64622;46.220;19.878;2023-01-01T15:08:48;101733.38;;;11.70;91.26
75942;BME280;64622;46.220;19.878;2023-01-01T15:11:16;101736.34;;;11.56;94.26
75942;BME280;64622;46.220;19.878;2023-01-01T15:14:00;101752.56;;;11.34;93.80
75942;BME280;64622;46.220;19.878;2023-01-01T15:16:28;101753.25;;;11.15;94.16
75942;BME280;64622;46.220;19.878;2023-01-01T15:18:55;101765.69;;;11.05;96.11
75942;BME280;64622;46.220;19.878;2023-01-01T15:24:17;101762.47;;;10.69;98.37
75942;BME280;64622;46.220;19.878;2023-01-01T15:26:56;101770.50;;;10.47;99.80